Wisconsin Dells, Wisconsin
Current Conditions -  °F | °C
As of 2:35 PM on Friday 21 Nov 2014 (Local Time) from KDLL Reporting Station
Clear Clear  
Wind Chill: 20°   Ceiling: Unl
Heat Index: 30°   Visibility: 10mi
Dew Point:   Wind: 14mph
Humidity: 36%   Direction: 180°S
Pressure: 30.22"   Gusts: NA
Location:  43.63°N, 89.77°W
Report Text: KDLL 212035Z AUTO 18012KT 10SM CLR M01/M15 A3022 RMK AO2 T10111147
Loading
Personal Weather Stations






























Interactive Weather Map New forecast layout! Learn more

10-Day Weather Forecast

Advertisements
Track Severe Weather on mobile